Progresso, New Mexico
Current Conditions -  °F | °C
As of 2:55 PM on Monday 22 Dec 2014 (Local Time) from K0E0 Reporting Station
Drizzle Drizzle  
Wind Chill: 50°   Ceiling: 6500
Heat Index: 50°   Visibility: 10mi
Dew Point: 31°   Wind: 17mph
Humidity: 49%   Direction: 270°W
Pressure: 29.7"   Gusts: 28mph
Location:  34.4464°N, 106.01°W
Report Text: K0E0 222155Z AUTO 27015G24KT 10SM -DZ SCT032 SCT045 BKN065 10/00 A2970 RMK AO2 LTG DSNT N T01001004
Loading
Personal Weather Stations






























Interactive Weather Map New forecast layout! Learn more

10-Day Weather Forecast

Advertisements
Track Severe Weather on mobile